sensor_id;sensor_type;location;lat;lon;timestamp;pressure;altitude;pressure_sealevel;temperature;humidity
27202;BME280;14717;46.924;15.474;2023-02-13T00:00:23;99977.09;;;-1.03;89.71
27202;BME280;14717;46.924;15.474;2023-02-13T00:02:49;99969.31;;;-0.90;88.87
27202;BME280;14717;46.924;15.474;2023-02-13T00:05:14;99971.84;;;-0.88;88.03
27202;BME280;14717;46.924;15.474;2023-02-13T00:07:40;99973.38;;;-0.86;87.67
27202;BME280;14717;46.924;15.474;2023-02-13T00:10:06;99965.75;;;-0.98;88.47
27202;BME280;14717;46.924;15.474;2023-02-13T00:12:32;99964.88;;;-0.99;89.61
27202;BME280;14717;46.924;15.474;2023-02-13T00:14:57;99967.63;;;-1.07;90.43
27202;BME280;14717;46.924;15.474;2023-02-13T00:17:24;99974.56;;;-0.96;90.17
27202;BME280;14717;46.924;15.474;2023-02-13T00:19:50;99980.81;;;-0.96;88.97
27202;BME280;14717;46.924;15.474;2023-02-13T00:22:16;99974.22;;;-0.93;88.14
27202;BME280;14717;46.924;15.474;2023-02-13T00:27:09;99982.34;;;-0.93;87.78
27202;BME280;14717;46.924;15.474;2023-02-13T00:29:34;99977.09;;;-0.95;88.32
27202;BME280;14717;46.924;15.474;2023-02-13T00:31:59;99974.22;;;-0.93;88.10
27202;BME280;14717;46.924;15.474;2023-02-13T00:34:26;99976.22;;;-0.95;87.46
27202;BME280;14717;46.924;15.474;2023-02-13T00:36:51;99980.16;;;-0.98;88.38
27202;BME280;14717;46.924;15.474;2023-02-13T00:39:17;99980.66;;;-1.02;89.43
27202;BME280;14717;46.924;15.474;2023-02-13T00:41:42;99975.41;;;-1.20;90.78
27202;BME280;14717;46.924;15.474;2023-02-13T00:44:08;99972.16;;;-1.23;89.65
27202;BME280;14717;46.924;15.474;2023-02-13T00:46:34;99974.72;;;-1.22;89.77
27202;BME280;14717;46.924;15.474;2023-02-13T00:49:00;99976.22;;;-1.27;89.15
27202;BME280;14717;46.924;15.474;2023-02-13T00:51:26;99975.22;;;-1.26;88.81
27202;BME280;14717;46.924;15.474;2023-02-13T00:53:51;99968.56;;;-1.31;88.88
27202;BME280;14717;46.924;15.474;2023-02-13T00:56:16;99966.06;;;-1.33;89.26
27202;BME280;14717;46.924;15.474;2023-02-13T00:58:42;99966.38;;;-1.36;91.09
27202;BME280;14717;46.924;15.474;2023-02-13T01:01:07;99972.78;;;-1.45;90.94
27202;BME280;14717;46.924;15.474;2023-02-13T01:03:32;99973.94;;;-1.63;91.53
27202;BME280;14717;46.924;15.474;2023-02-13T01:05:58;99965.47;;;-1.60;92.09
27202;BME280;14717;46.924;15.474;2023-02-13T01:08:24;99973.50;;;-1.43;91.08
27202;BME280;14717;46.924;15.474;2023-02-13T01:10:53;99965.50;;;-1.36;89.24
27202;BME280;14717;46.924;15.474;2023-02-13T01:13:18;99975.31;;;-1.51;90.09
27202;BME280;14717;46.924;15.474;2023-02-13T01:15:45;99964.91;;;-1.79;90.43
27202;BME280;14717;46.924;15.474;2023-02-13T01:18:15;99964.03;;;-1.88;91.84
27202;BME280;14717;46.924;15.474;2023-02-13T01:20:42;99971.63;;;-1.91;92.79
27202;BME280;14717;46.924;15.474;2023-02-13T01:23:08;99971.47;;;-1.90;93.21
27202;BME280;14717;46.924;15.474;2023-02-13T01:25:37;99960.97;;;-1.93;93.65
27202;BME280;14717;46.924;15.474;2023-02-13T01:28:03;99953.72;;;-1.84;93.08
27202;BME280;14717;46.924;15.474;2023-02-13T01:30:28;99961.75;;;-1.67;92.35
27202;BME280;14717;46.924;15.474;2023-02-13T01:32:54;99957.69;;;-1.63;91.74
27202;BME280;14717;46.924;15.474;2023-02-13T01:35:19;99954.16;;;-1.56;90.84
27202;BME280;14717;46.924;15.474;2023-02-13T01:37:44;99961.75;;;-1.67;90.12
27202;BME280;14717;46.924;15.474;2023-02-13T01:40:11;99954.44;;;-1.74;90.64
27202;BME280;14717;46.924;15.474;2023-02-13T01:42:37;99957.31;;;-1.68;90.90
27202;BME280;14717;46.924;15.474;2023-02-13T01:45:12;99959.38;;;-1.62;89.48
27202;BME280;14717;46.924;15.474;2023-02-13T01:47:57;99962.38;;;-1.73;89.53
27202;BME280;14717;46.924;15.474;2023-02-13T01:50:37;99960.31;;;-1.87;89.65
27202;BME280;14717;46.924;15.474;2023-02-13T01:53:12;99955.50;;;-2.09;91.22
27202;BME280;14717;46.924;15.474;2023-02-13T01:55:54;99951.66;;;-1.98;90.92
27202;BME280;14717;46.924;15.474;2023-02-13T01:58:24;99958.13;;;-1.83;90.30
27202;BME280;14717;46.924;15.474;2023-02-13T02:00:51;99948.78;;;-1.97;90.06
27202;BME280;14717;46.924;15.474;2023-02-13T02:03:23;99952.56;;;-1.82;89.53
27202;BME280;14717;46.924;15.474;2023-02-13T02:05:51;99951.13;;;-2.02;91.12
27202;BME280;14717;46.924;15.474;2023-02-13T02:08:18;99950.81;;;-1.99;90.68
27202;BME280;14717;46.924;15.474;2023-02-13T02:10:44;99952.81;;;-2.09;91.44
27202;BME280;14717;46.924;15.474;2023-02-13T02:13:18;99940.63;;;-2.05;91.27
27202;BME280;14717;46.924;15.474;2023-02-13T02:15:45;99944.72;;;-1.93;90.89
27202;BME280;14717;46.924;15.474;2023-02-13T02:18:14;99941.00;;;-1.92;89.88
27202;BME280;14717;46.924;15.474;2023-02-13T02:32:04;99953.91;;;-2.19;93.75
27202;BME280;14717;46.924;15.474;2023-02-13T02:35:12;99961.34;;;-2.21;93.97
27202;BME280;14717;46.924;15.474;2023-02-13T02:43:03;99943.97;;;-2.11;93.23
27202;BME280;14717;46.924;15.474;2023-02-13T02:45:48;99942.50;;;-2.38;92.90
27202;BME280;14717;46.924;15.474;2023-02-13T02:48:42;99948.13;;;-2.57;94.66
27202;BME280;14717;46.924;15.474;2023-02-13T02:51:40;99952.00;;;-2.34;93.48
27202;BME280;14717;46.924;15.474;2023-02-13T02:54:38;99944.59;;;-2.24;93.37
27202;BME280;14717;46.924;15.474;2023-02-13T02:57:29;99943.59;;;-2.15;92.49
27202;BME280;14717;46.924;15.474;2023-02-13T03:00:20;99934.09;;;-2.27;92.00
27202;BME280;14717;46.924;15.474;2023-02-13T03:03:13;99940.84;;;-2.31;92.40
27202;BME280;14717;46.924;15.474;2023-02-13T03:06:00;99943.03;;;-2.27;91.10
27202;BME280;14717;46.924;15.474;2023-02-13T03:08:36;99944.13;;;-2.20;90.83
27202;BME280;14717;46.924;15.474;2023-02-13T03:11:21;99944.13;;;-2.20;90.90
27202;BME280;14717;46.924;15.474;2023-02-13T03:14:07;99957.50;;;-2.18;90.23
27202;BME280;14717;46.924;15.474;2023-02-13T03:16:34;99954.22;;;-2.22;89.72
27202;BME280;14717;46.924;15.474;2023-02-13T03:22:28;99959.44;;;-2.36;90.68
27202;BME280;14717;46.924;15.474;2023-02-13T03:31:41;99937.56;;;-2.43;91.22
27202;BME280;14717;46.924;15.474;2023-02-13T03:34:12;99934.97;;;-2.52;91.18
27202;BME280;14717;46.924;15.474;2023-02-13T03:36:46;99938.41;;;-2.42;91.13
27202;BME280;14717;46.924;15.474;2023-02-13T03:42:07;99942.16;;;-2.35;90.00
27202;BME280;14717;46.924;15.474;2023-02-13T03:44:53;99944.19;;;-2.37;89.99
27202;BME280;14717;46.924;15.474;2023-02-13T03:47:40;99933.38;;;-2.37;89.90
27202;BME280;14717;46.924;15.474;2023-02-13T03:50:07;99935.13;;;-2.54;90.23
27202;BME280;14717;46.924;15.474;2023-02-13T03:52:42;99934.97;;;-2.52;90.59
27202;BME280;14717;46.924;15.474;2023-02-13T03:55:16;99937.69;;;-2.52;89.95
27202;BME280;14717;46.924;15.474;2023-02-13T03:58:08;99936.69;;;-2.51;90.86
27202;BME280;14717;46.924;15.474;2023-02-13T04:00:57;99943.13;;;-2.44;90.28
27202;BME280;14717;46.924;15.474;2023-02-13T04:03:36;99930.59;;;-2.53;88.85
27202;BME280;14717;46.924;15.474;2023-02-13T04:06:10;99925.19;;;-2.53;89.75
27202;BME280;14717;46.924;15.474;2023-02-13T04:08:37;99924.84;;;-2.50;89.31
27202;BME280;14717;46.924;15.474;2023-02-13T04:14:00;99919.00;;;-2.63;90.43
27202;BME280;14717;46.924;15.474;2023-02-13T04:16:34;99918.84;;;-2.61;89.45
27202;BME280;14717;46.924;15.474;2023-02-13T04:19:02;99928.34;;;-2.83;90.64
27202;BME280;14717;46.924;15.474;2023-02-13T04:21:33;99931.03;;;-2.91;92.29
27202;BME280;14717;46.924;15.474;2023-02-13T04:23:59;99926.69;;;-3.01;92.06
27202;BME280;14717;46.924;15.474;2023-02-13T04:26:25;99924.91;;;-2.93;91.89
27202;BME280;14717;46.924;15.474;2023-02-13T04:28:52;99916.63;;;-2.91;92.34
27202;BME280;14717;46.924;15.474;2023-02-13T04:31:18;99917.75;;;-3.01;93.25
27202;BME280;14717;46.924;15.474;2023-02-13T04:33:43;99926.16;;;-3.04;93.62
27202;BME280;14717;46.924;15.474;2023-02-13T04:36:08;99917.69;;;-3.09;94.28
27202;BME280;14717;46.924;15.474;2023-02-13T04:38:34;99925.56;;;-3.16;94.85
27202;BME280;14717;46.924;15.474;2023-02-13T04:40:59;99919.94;;;-3.05;94.79
27202;BME280;14717;46.924;15.474;2023-02-13T04:43:24;99919.50;;;-2.93;94.74
27202;BME280;14717;46.924;15.474;2023-02-13T04:45:50;99920.59;;;-2.86;93.48
27202;BME280;14717;46.924;15.474;2023-02-13T04:48:16;99916.47;;;-2.90;92.74
27202;BME280;14717;46.924;15.474;2023-02-13T04:50:41;99921.09;;;-2.82;91.71
27202;BME280;14717;46.924;15.474;2023-02-13T04:53:07;99921.81;;;-2.97;92.34
27202;BME280;14717;46.924;15.474;2023-02-13T04:55:33;99924.66;;;-3.07;93.66
27202;BME280;14717;46.924;15.474;2023-02-13T04:57:58;99924.06;;;-3.18;93.69
27202;BME280;14717;46.924;15.474;2023-02-13T05:00:26;99920.31;;;-3.17;94.10
27202;BME280;14717;46.924;15.474;2023-02-13T05:02:52;99929.69;;;-3.12;94.00
27202;BME280;14717;46.924;15.474;2023-02-13T05:05:18;99937.47;;;-3.09;92.85
27202;BME280;14717;46.924;15.474;2023-02-13T05:07:43;99932.22;;;-3.10;93.94
27202;BME280;14717;46.924;15.474;2023-02-13T05:10:09;99930.50;;;-3.11;92.94
27202;BME280;14717;46.924;15.474;2023-02-13T05:12:35;99935.84;;;-3.02;92.58
27202;BME280;14717;46.924;15.474;2023-02-13T05:15:01;99933.13;;;-3.02;91.72
27202;BME280;14717;46.924;15.474;2023-02-13T05:17:26;99935.84;;;-3.02;91.35
27202;BME280;14717;46.924;15.474;2023-02-13T05:19:51;99933.59;;;-3.06;92.36
27202;BME280;14717;46.924;15.474;2023-02-13T05:22:17;99932.38;;;-3.12;92.38
27202;BME280;14717;46.924;15.474;2023-02-13T05:25:01;99938.69;;;-3.03;91.72
27202;BME280;14717;46.924;15.474;2023-02-13T05:27:27;99937.50;;;-3.01;91.03
27202;BME280;14717;46.924;15.474;2023-02-13T05:29:52;99931.41;;;-3.03;90.52
27202;BME280;14717;46.924;15.474;2023-02-13T05:32:17;99936.66;;;-3.01;91.05
27202;BME280;14717;46.924;15.474;2023-02-13T05:34:43;99929.63;;;-2.95;90.10
27202;BME280;14717;46.924;15.474;2023-02-13T05:37:08;99918.66;;;-2.93;90.17
27202;BME280;14717;46.924;15.474;2023-02-13T05:39:33;99928.16;;;-2.89;90.17
27202;BME280;14717;46.924;15.474;2023-02-13T05:41:59;99927.66;;;-2.85;89.95
27202;BME280;14717;46.924;15.474;2023-02-13T05:44:24;99927.34;;;-2.82;89.93
27202;BME280;14717;46.924;15.474;2023-02-13T05:46:49;99929.53;;;-2.85;90.12
27202;BME280;14717;46.924;15.474;2023-02-13T05:49:17;99923.59;;;-2.89;90.33
27202;BME280;14717;46.924;15.474;2023-02-13T05:51:43;99935.09;;;-2.87;90.41
27202;BME280;14717;46.924;15.474;2023-02-13T05:54:10;99922.75;;;-2.89;91.34
27202;BME280;14717;46.924;15.474;2023-02-13T05:56:35;99932.00;;;-2.92;91.05
27202;BME280;14717;46.924;15.474;2023-02-13T05:59:01;99931.78;;;-2.98;91.30
27202;BME280;14717;46.924;15.474;2023-02-13T06:01:26;99939.69;;;-3.04;92.13
27202;BME280;14717;46.924;15.474;2023-02-13T06:03:52;99930.97;;;-2.98;91.78
27202;BME280;14717;46.924;15.474;2023-02-13T06:06:17;99928.09;;;-2.97;91.47
27202;BME280;14717;46.924;15.474;2023-02-13T06:08:42;99943.13;;;-2.95;90.80
27202;BME280;14717;46.924;15.474;2023-02-13T06:11:09;99937.50;;;-3.01;91.47
27202;BME280;14717;46.924;15.474;2023-02-13T06:13:35;99943.44;;;-2.97;91.68
27202;BME280;14717;46.924;15.474;2023-02-13T06:16:02;99937.19;;;-2.98;91.69
27202;BME280;14717;46.924;15.474;2023-02-13T06:18:27;99946.00;;;-2.96;91.90
27202;BME280;14717;46.924;15.474;2023-02-13T06:20:52;99945.69;;;-2.93;91.36
27202;BME280;14717;46.924;15.474;2023-02-13T06:23:18;99950.56;;;-2.97;91.18
27202;BME280;14717;46.924;15.474;2023-02-13T06:25:43;99950.19;;;-3.01;90.58
27202;BME280;14717;46.924;15.474;2023-02-13T06:28:08;99950.25;;;-2.94;91.19
27202;BME280;14717;46.924;15.474;2023-02-13T06:30:34;99943.41;;;-3.05;93.07
27202;BME280;14717;46.924;15.474;2023-02-13T06:32:59;99955.81;;;-3.12;92.17
27202;BME280;14717;46.924;15.474;2023-02-13T06:35:25;99952.13;;;-3.11;93.52
27202;BME280;14717;46.924;15.474;2023-02-13T06:37:51;99959.56;;;-3.13;93.60
27202;BME280;14717;46.924;15.474;2023-02-13T06:40:16;99948.91;;;-3.15;93.79
27202;BME280;14717;46.924;15.474;2023-02-13T06:42:42;99958.16;;;-3.17;94.62
27202;BME280;14717;46.924;15.474;2023-02-13T06:45:09;99958.06;;;-3.08;94.69
27202;BME280;14717;46.924;15.474;2023-02-13T06:47:34;99962.75;;;-2.93;95.57
27202;BME280;14717;46.924;15.474;2023-02-13T06:50:00;99969.28;;;-2.78;94.46
27202;BME280;14717;46.924;15.474;2023-02-13T06:52:25;99967.69;;;-2.63;93.62
27202;BME280;14717;46.924;15.474;2023-02-13T06:54:50;99967.06;;;-2.57;93.27
27202;BME280;14717;46.924;15.474;2023-02-13T06:57:16;99966.38;;;-2.59;93.30
27202;BME280;14717;46.924;15.474;2023-02-13T06:59:42;99963.72;;;-2.51;94.44
27202;BME280;14717;46.924;15.474;2023-02-13T07:02:11;99968.47;;;-2.45;94.73
27202;BME280;14717;46.924;15.474;2023-02-13T07:04:36;99960.72;;;-2.40;93.01
27202;BME280;14717;46.924;15.474;2023-02-13T07:07:01;99964.31;;;-2.32;93.43
27202;BME280;14717;46.924;15.474;2023-02-13T07:09:27;99964.22;;;-2.22;94.38
27202;BME280;14717;46.924;15.474;2023-02-13T07:11:52;99963.25;;;-2.13;93.08
27202;BME280;14717;46.924;15.474;2023-02-13T07:14:18;99958.03;;;-2.07;93.98
27202;BME280;14717;46.924;15.474;2023-02-13T07:16:43;99959.78;;;-1.98;94.95
27202;BME280;14717;46.924;15.474;2023-02-13T07:19:08;99956.22;;;-1.99;95.98
27202;BME280;14717;46.924;15.474;2023-02-13T07:21:34;99964.56;;;-1.84;96.10
27202;BME280;14717;46.924;15.474;2023-02-13T07:23:59;99962.25;;;-1.64;96.77
27202;BME280;14717;46.924;15.474;2023-02-13T07:26:25;99971.91;;;-1.53;94.98
27202;BME280;14717;46.924;15.474;2023-02-13T07:28:51;99961.47;;;-1.40;95.41
27202;BME280;14717;46.924;15.474;2023-02-13T07:31:16;99959.09;;;-1.35;95.60
27202;BME280;14717;46.924;15.474;2023-02-13T07:33:42;99951.66;;;-1.26;95.45
27202;BME280;14717;46.924;15.474;2023-02-13T07:36:07;99954.22;;;-1.08;96.22
27202;BME280;14717;46.924;15.474;2023-02-13T07:38:33;99952.16;;;-0.90;96.49
27202;BME280;14717;46.924;15.474;2023-02-13T07:40:59;99939.44;;;-0.74;96.64
27202;BME280;14717;46.924;15.474;2023-02-13T07:43:25;99940.81;;;-0.62;96.22
27202;BME280;14717;46.924;15.474;2023-02-13T07:45:50;99947.06;;;-0.46;95.97
27202;BME280;14717;46.924;15.474;2023-02-13T07:48:21;99934.47;;;-0.39;94.70
27202;BME280;14717;46.924;15.474;2023-02-13T07:50:46;99946.31;;;-0.24;94.67
27202;BME280;14717;46.924;15.474;2023-02-13T07:53:11;99934.88;;;-0.12;94.33
27202;BME280;14717;46.924;15.474;2023-02-13T07:55:37;99941.44;;;0.01;94.66
27202;BME280;14717;46.924;15.474;2023-02-13T07:58:03;99938.16;;;0.22;94.04
27202;BME280;14717;46.924;15.474;2023-02-13T08:00:28;99933.16;;;0.33;93.56
27202;BME280;14717;46.924;15.474;2023-02-13T08:02:54;99937.47;;;0.50;93.70
27202;BME280;14717;46.924;15.474;2023-02-13T08:05:19;99929.09;;;0.59;93.03
27202;BME280;14717;46.924;15.474;2023-02-13T08:07:44;99931.69;;;0.75;93.25
27202;BME280;14717;46.924;15.474;2023-02-13T08:10:11;99929.53;;;0.93;92.86
27202;BME280;14717;46.924;15.474;2023-02-13T08:12:56;99928.72;;;1.07;92.00
27202;BME280;14717;46.924;15.474;2023-02-13T08:15:21;99935.81;;;1.16;91.76
27202;BME280;14717;46.924;15.474;2023-02-13T08:17:47;99932.66;;;1.27;91.50
27202;BME280;14717;46.924;15.474;2023-02-13T08:20:13;99933.25;;;1.36;91.10
27202;BME280;14717;46.924;15.474;2023-02-13T08:22:39;99931.00;;;1.54;91.40
27202;BME280;14717;46.924;15.474;2023-02-13T08:25:05;99938.00;;;1.71;91.26
27202;BME280;14717;46.924;15.474;2023-02-13T08:27:31;99930.56;;;1.79;90.75
27202;BME280;14717;46.924;15.474;2023-02-13T08:29:57;99924.56;;;1.98;90.61
27202;BME280;14717;46.924;15.474;2023-02-13T08:32:24;99921.19;;;2.11;89.15
27202;BME280;14717;46.924;15.474;2023-02-13T08:34:50;99925.00;;;2.30;89.06
27202;BME280;14717;46.924;15.474;2023-02-13T08:37:15;99917.63;;;2.45;88.83
27202;BME280;14717;46.924;15.474;2023-02-13T08:39:41;99915.72;;;2.60;88.49
27202;BME280;14717;46.924;15.474;2023-02-13T08:42:06;99913.78;;;2.75;87.73
27202;BME280;14717;46.924;15.474;2023-02-13T08:44:32;99924.19;;;2.86;86.95
27202;BME280;14717;46.924;15.474;2023-02-13T08:46:57;99909.91;;;3.04;87.77
27202;BME280;14717;46.924;15.474;2023-02-13T08:49:25;99905.59;;;3.16;86.77
27202;BME280;14717;46.924;15.474;2023-02-13T08:51:50;99903.25;;;3.34;86.12
27202;BME280;14717;46.924;15.474;2023-02-13T08:54:15;99906.28;;;3.45;85.06
27202;BME280;14717;46.924;15.474;2023-02-13T08:56:41;99901.75;;;3.59;83.60
27202;BME280;14717;46.924;15.474;2023-02-13T08:59:07;99905.75;;;3.63;81.26
27202;BME280;14717;46.924;15.474;2023-02-13T09:01:32;99900.78;;;3.73;82.17
27202;BME280;14717;46.924;15.474;2023-02-13T09:03:58;99897.75;;;3.88;81.86
27202;BME280;14717;46.924;15.474;2023-02-13T09:06:23;99898.91;;;4.07;81.77
27202;BME280;14717;46.924;15.474;2023-02-13T09:08:50;99901.53;;;4.21;80.25
27202;BME280;14717;46.924;15.474;2023-02-13T09:11:16;99909.31;;;4.24;78.84
27202;BME280;14717;46.924;15.474;2023-02-13T09:13:41;99911.66;;;4.33;79.74
27202;BME280;14717;46.924;15.474;2023-02-13T09:16:07;99907.50;;;4.37;77.93
27202;BME280;14717;46.924;15.474;2023-02-13T09:18:33;99907.09;;;4.47;77.09
27202;BME280;14717;46.924;15.474;2023-02-13T09:21:04;99910.31;;;4.63;77.39
27202;BME280;14717;46.924;15.474;2023-02-13T09:23:31;99911.84;;;4.78;77.16
27202;BME280;14717;46.924;15.474;2023-02-13T09:26:01;99917.81;;;4.95;76.72
27202;BME280;14717;46.924;15.474;2023-02-13T09:28:28;99917.41;;;5.10;76.82
27202;BME280;14717;46.924;15.474;2023-02-13T09:30:54;99910.25;;;5.09;76.09
27202;BME280;14717;46.924;15.474;2023-02-13T09:33:19;99910.25;;;5.29;75.28
27202;BME280;14717;46.924;15.474;2023-02-13T09:35:44;99915.13;;;5.40;75.19
27202;BME280;14717;46.924;15.474;2023-02-13T09:38:10;99920.81;;;5.45;74.49
27202;BME280;14717;46.924;15.474;2023-02-13T09:40:52;99917.22;;;5.63;76.03
27202;BME280;14717;46.924;15.474;2023-02-13T09:43:28;99921.44;;;5.59;74.89
27202;BME280;14717;46.924;15.474;2023-02-13T09:45:57;99918.94;;;5.77;74.16
27202;BME280;14717;46.924;15.474;2023-02-13T09:48:33;99925.03;;;5.92;73.74
27202;BME280;14717;46.924;15.474;2023-02-13T09:51:00;99924.22;;;5.85;73.52
27202;BME280;14717;46.924;15.474;2023-02-13T09:53:28;99924.84;;;5.87;73.10
27202;BME280;14717;46.924;15.474;2023-02-13T09:55:59;99927.13;;;5.71;73.43
27202;BME280;14717;46.924;15.474;2023-02-13T10:01:05;99923.81;;;5.75;73.45
27202;BME280;14717;46.924;15.474;2023-02-13T10:03:50;99923.72;;;6.14;71.90
27202;BME280;14717;46.924;15.474;2023-02-13T10:06:35;99913.28;;;6.48;71.06
27202;BME280;14717;46.924;15.474;2023-02-13T10:15:21;99915.75;;;7.06;70.27
27202;BME280;14717;46.924;15.474;2023-02-13T10:18:02;99911.59;;;7.27;68.47
27202;BME280;14717;46.924;15.474;2023-02-13T10:23:26;99897.91;;;7.45;67.50
27202;BME280;14717;46.924;15.474;2023-02-13T10:25:58;99890.28;;;7.71;67.96
27202;BME280;14717;46.924;15.474;2023-02-13T10:28:38;99886.75;;;7.89;67.49
27202;BME280;14717;46.924;15.474;2023-02-13T10:31:10;99887.53;;;7.96;66.23
27202;BME280;14717;46.924;15.474;2023-02-13T10:33:46;99880.81;;;8.09;64.95
27202;BME280;14717;46.924;15.474;2023-02-13T10:36:28;99879.34;;;8.13;65.02
27202;BME280;14717;46.924;15.474;2023-02-13T10:44:19;99875.41;;;8.21;65.01
27202;BME280;14717;46.924;15.474;2023-02-13T10:52:31;99869.50;;;8.71;63.92
27202;BME280;14717;46.924;15.474;2023-02-13T11:00:33;99867.19;;;8.86;62.67
27202;BME280;14717;46.924;15.474;2023-02-13T11:03:01;99870.94;;;8.91;62.65
27202;BME280;14717;46.924;15.474;2023-02-13T11:05:35;99860.78;;;9.03;62.88
27202;BME280;14717;46.924;15.474;2023-02-13T11:08:01;99857.75;;;9.22;61.53
27202;BME280;14717;46.924;15.474;2023-02-13T11:10:27;99867.69;;;9.23;60.98
27202;BME280;14717;46.924;15.474;2023-02-13T11:12:53;99868.03;;;9.27;60.91
27202;BME280;14717;46.924;15.474;2023-02-13T11:15:30;99845.88;;;9.33;61.02
27202;BME280;14717;46.924;15.474;2023-02-13T11:17:59;99854.91;;;9.40;60.38
27202;BME280;14717;46.924;15.474;2023-02-13T11:20:32;99850.88;;;9.13;59.94
27202;BME280;14717;46.924;15.474;2023-02-13T11:26:03;99853.41;;;9.26;60.25
27202;BME280;14717;46.924;15.474;2023-02-13T11:28:36;99851.31;;;9.51;60.39
27202;BME280;14717;46.924;15.474;2023-02-13T11:31:34;99845.03;;;9.32;59.19
27202;BME280;14717;46.924;15.474;2023-02-13T11:34:24;99842.00;;;9.11;59.78
27202;BME280;14717;46.924;15.474;2023-02-13T11:37:08;99839.41;;;9.28;59.17
27202;BME280;14717;46.924;15.474;2023-02-13T11:39:43;99825.91;;;9.72;58.72
27202;BME280;14717;46.924;15.474;2023-02-13T11:42:33;99840.19;;;9.91;58.12
27202;BME280;14717;46.924;15.474;2023-02-13T11:45:03;99829.63;;;9.88;58.08
27202;BME280;14717;46.924;15.474;2023-02-13T11:47:40;99834.94;;;10.01;57.86
27202;BME280;14717;46.924;15.474;2023-02-13T11:52:55;99828.44;;;9.73;57.97
27202;BME280;14717;46.924;15.474;2023-02-13T11:55:36;99820.19;;;9.96;57.19
27202;BME280;14717;46.924;15.474;2023-02-13T12:00:41;99824.72;;;10.13;57.11
27202;BME280;14717;46.924;15.474;2023-02-13T12:03:29;99819.78;;;10.15;57.30
27202;BME280;14717;46.924;15.474;2023-02-13T12:08:29;99814.16;;;10.10;56.73
27202;BME280;14717;46.924;15.474;2023-02-13T12:10:56;99815.84;;;10.11;56.64
27202;BME280;14717;46.924;15.474;2023-02-13T12:13:31;99810.88;;;10.36;56.72
27202;BME280;14717;46.924;15.474;2023-02-13T12:19:09;99799.31;;;10.50;55.02
27202;BME280;14717;46.924;15.474;2023-02-13T12:24:55;99796.19;;;9.96;56.80
27202;BME280;14717;46.924;15.474;2023-02-13T12:41:27;99778.34;;;10.65;54.17
27202;BME280;14717;46.924;15.474;2023-02-13T12:47:18;99775.94;;;10.58;53.76
27202;BME280;14717;46.924;15.474;2023-02-13T12:49:59;99770.81;;;10.77;53.42
27202;BME280;14717;46.924;15.474;2023-02-13T12:58:32;99760.63;;;10.94;53.88
27202;BME280;14717;46.924;15.474;2023-02-13T13:03:56;99760.13;;;10.97;53.53
27202;BME280;14717;46.924;15.474;2023-02-13T13:17:58;99755.06;;;10.62;52.96
27202;BME280;14717;46.924;15.474;2023-02-13T13:20:33;99756.22;;;10.65;53.84
27202;BME280;14717;46.924;15.474;2023-02-13T13:23:06;99753.66;;;10.75;53.93
27202;BME280;14717;46.924;15.474;2023-02-13T13:28:34;99753.50;;;10.82;52.85
27202;BME280;14717;46.924;15.474;2023-02-13T13:31:02;99751.06;;;10.85;52.66
27202;BME280;14717;46.924;15.474;2023-02-13T13:33:27;99756.63;;;11.02;52.32
27202;BME280;14717;46.924;15.474;2023-02-13T13:36:08;99748.03;;;11.14;52.11
27202;BME280;14717;46.924;15.474;2023-02-13T13:39:01;99755.63;;;10.91;52.68
27202;BME280;14717;46.924;15.474;2023-02-13T13:44:25;99750.44;;;11.11;52.20
27202;BME280;14717;46.924;15.474;2023-02-13T13:49:50;99747.78;;;11.16;51.95
27202;BME280;14717;46.924;15.474;2023-02-13T13:52:38;99757.94;;;10.99;51.59
27202;BME280;14717;46.924;15.474;2023-02-13T13:55:04;99757.53;;;10.91;52.53
27202;BME280;14717;46.924;15.474;2023-02-13T13:57:58;99758.31;;;11.03;52.31
27202;BME280;14717;46.924;15.474;2023-02-13T14:00:28;99757.34;;;10.81;52.42
27202;BME280;14717;46.924;15.474;2023-02-13T14:05:32;99752.63;;;10.93;52.84
27202;BME280;14717;46.924;15.474;2023-02-13T14:09:35;99757.78;;;10.89;52.45
27202;BME280;14717;46.924;15.474;2023-02-13T14:11:39;99752.63;;;10.93;52.85
27202;BME280;14717;46.924;15.474;2023-02-13T14:16:56;99761.00;;;11.14;52.44
27202;BME280;14717;46.924;15.474;2023-02-13T14:19:27;99752.94;;;11.29;51.89
27202;BME280;14717;46.924;15.474;2023-02-13T14:21:54;99748.38;;;11.34;51.67
27202;BME280;14717;46.924;15.474;2023-02-13T14:24:39;99752.41;;;10.99;51.51
27202;BME280;14717;46.924;15.474;2023-02-13T14:27:19;99736.28;;;11.07;52.15
27202;BME280;14717;46.924;15.474;2023-02-13T14:29:48;99734.59;;;11.06;51.72
27202;BME280;14717;46.924;15.474;2023-02-13T14:32:16;99734.25;;;11.03;52.09
27202;BME280;14717;46.924;15.474;2023-02-13T14:34:51;99739.53;;;11.04;51.84
27202;BME280;14717;46.924;15.474;2023-02-13T14:37:20;99733.34;;;10.98;52.25
27202;BME280;14717;46.924;15.474;2023-02-13T14:40:27;99738.41;;;10.89;51.86
27202;BME280;14717;46.924;15.474;2023-02-13T14:46:06;99739.09;;;10.80;52.18
27202;BME280;14717;46.924;15.474;2023-02-13T14:48:55;99733.50;;;10.91;52.02
27202;BME280;14717;46.924;15.474;2023-02-13T14:51:30;99730.13;;;10.89;52.41
27202;BME280;14717;46.924;15.474;2023-02-13T14:54:02;99731.31;;;10.93;52.53
27202;BME280;14717;46.924;15.474;2023-02-13T14:56:29;99715.06;;;10.97;51.73
27202;BME280;14717;46.924;15.474;2023-02-13T14:59:08;99729.22;;;11.00;52.47
27202;BME280;14717;46.924;15.474;2023-02-13T15:01:43;99722.47;;;11.07;51.77
27202;BME280;14717;46.924;15.474;2023-02-13T15:04:30;99715.97;;;11.02;51.88
27202;BME280;14717;46.924;15.474;2023-02-13T15:07:01;99716.84;;;11.03;51.91
27202;BME280;14717;46.924;15.474;2023-02-13T15:09:38;99704.81;;;10.97;52.09
27202;BME280;14717;46.924;15.474;2023-02-13T15:12:27;99713.59;;;10.62;52.42
27202;BME280;14717;46.924;15.474;2023-02-13T15:14:54;99708.44;;;10.54;53.25
27202;BME280;14717;46.924;15.474;2023-02-13T15:17:31;99705.81;;;10.75;52.87
27202;BME280;14717;46.924;15.474;2023-02-13T15:22:38;99715.25;;;10.62;52.61
27202;BME280;14717;46.924;15.474;2023-02-13T15:25:07;99713.41;;;10.52;52.53
27202;BME280;14717;46.924;15.474;2023-02-13T15:27:42;99707.88;;;10.52;53.11